Time;durP1;ratioP1;P1;durP2;ratioP2;P2;SDS_P1;SDS_P2;PMS_P1;PMS_P2;Temp;Humidity;BMP_temperature;BMP_pressure;BME280_temperature;BME280_humidity;BME280_pressure;Samples;Min_cycle;Max_cycle;Signal;HPM_P1;HPM_P2
2022/04/03 00:01:58;;;;;;;6.60;3.88;;;;;;;;;;5083979;28;20079;-81
2022/04/03 00:04:24;;;;;;;9.18;4.50;;;;;;;;;;5071341;28;20059;-81
2022/04/03 00:06:50;;;;;;;10.85;5.60;;;;;;;;;;5051844;28;20044;-80
2022/04/03 00:09:17;;;;;;;8.07;5.35;;;;;;;;;;5084217;28;20052;-81
2022/04/03 00:11:43;;;;;;;7.68;4.93;;;;;;;;;;5083735;28;20040;-81
2022/04/03 00:14:10;;;;;;;8.48;4.63;;;;;;;;;;5068568;28;20042;-82
2022/04/03 00:16:36;;;;;;;7.03;4.60;;;;;;;;;;5067737;28;20040;-81
2022/04/03 00:19:02;;;;;;;9.30;4.43;;;;;;;;;;5084140;28;20113;-81
2022/04/03 00:21:28;;;;;;;9.02;4.65;;;;;;;;;;5069319;28;20052;-82
2022/04/03 00:23:55;;;;;;;7.40;4.50;;;;;;;;;;5081945;28;20035;-81
2022/04/03 00:26:21;;;;;;;7.55;4.45;;;;;;;;;;5084168;28;20044;-82
2022/04/03 00:28:47;;;;;;;6.20;3.92;;;;;;;;;;5084862;28;20135;-81
2022/04/03 00:31:13;;;;;;;9.13;3.70;;;;;;;;;;5084630;28;20043;-82
2022/04/03 00:33:40;;;;;;;5.63;4.28;;;;;;;;;;5070113;28;20130;-81
2022/04/03 00:36:06;;;;;;;7.40;4.15;;;;;;;;;;5067617;28;20040;-82
2022/04/03 00:38:33;;;;;;;7.72;4.30;;;;;;;;;;5115667;27;20774;-82
2022/04/03 00:41:01;;;;;;;7.03;3.80;;;;;;;;;;5083285;28;20126;-82
2022/04/03 00:43:27;;;;;;;8.48;3.53;;;;;;;;;;5068114;28;20131;-82
2022/04/03 00:45:53;;;;;;;12.07;4.20;;;;;;;;;;5067495;28;20058;-82
2022/04/03 00:48:19;;;;;;;7.63;4.00;;;;;;;;;;5083606;28;20052;-82
2022/04/03 00:50:45;;;;;;;8.35;4.00;;;;;;;;;;5069137;28;20486;-81
2022/04/03 00:53:11;;;;;;;4.80;3.78;;;;;;;;;;5083493;28;20102;-83
2022/04/03 00:55:41;;;;;;;6.15;3.83;;;;;;;;;;5084077;28;20101;-83
2022/04/03 00:58:08;;;;;;;4.18;3.17;;;;;;;;;;5083270;28;20442;-83
2022/04/03 01:00:34;;;;;;;9.15;5.03;;;;;;;;;;5068421;28;20086;-83
2022/04/03 01:03:02;;;;;;;6.35;3.67;;;;;;;;;;5099282;28;20055;-82
2022/04/03 01:05:28;;;;;;;7.82;3.95;;;;;;;;;;5068129;28;20083;-82
2022/04/03 01:07:54;;;;;;;8.20;3.95;;;;;;;;;;5099748;27;20040;-81
2022/04/03 01:10:20;;;;;;;9.70;4.80;;;;;;;;;;5084443;28;20048;-81
2022/04/03 01:12:46;;;;;;;6.22;4.53;;;;;;;;;;5083018;28;20055;-81
2022/04/03 01:15:16;;;;;;;7.50;3.95;;;;;;;;;;5082750;28;20082;-82
2022/04/03 01:17:43;;;;;;;7.47;3.83;;;;;;;;;;5082841;28;20115;-82
2022/04/03 01:20:10;;;;;;;6.50;4.20;;;;;;;;;;5069803;28;20044;-82
2022/04/03 01:22:36;;;;;;;6.30;3.97;;;;;;;;;;5067297;28;20051;-81
2022/04/03 01:25:02;;;;;;;7.10;3.63;;;;;;;;;;5099290;28;20050;-81
2022/04/03 01:27:28;;;;;;;6.10;4.28;;;;;;;;;;5048835;28;20043;-81
2022/04/03 01:29:54;;;;;;;10.32;3.92;;;;;;;;;;5066029;28;21588;-82
2022/04/03 01:32:21;;;;;;;7.13;4.13;;;;;;;;;;5068958;28;20093;-82
2022/04/03 01:34:47;;;;;;;6.95;3.78;;;;;;;;;;5082926;28;20518;-81
2022/04/03 01:37:13;;;;;;;5.32;3.60;;;;;;;;;;5066739;28;20048;-82
2022/04/03 01:39:40;;;;;;;6.03;3.72;;;;;;;;;;5066995;28;20040;-82
2022/04/03 01:42:06;;;;;;;7.13;3.80;;;;;;;;;;5065462;28;20048;-82
2022/04/03 01:44:32;;;;;;;6.30;3.58;;;;;;;;;;5065702;28;20498;-82
2022/04/03 01:46:58;;;;;;;7.60;3.60;;;;;;;;;;5066600;28;20048;-81
2022/04/03 01:49:24;;;;;;;10.88;3.75;;;;;;;;;;5053351;28;20048;-82
2022/04/03 01:51:50;;;;;;;11.50;4.10;;;;;;;;;;5081058;28;20043;-81
2022/04/03 01:54:16;;;;;;;10.13;3.83;;;;;;;;;;5082759;28;20079;-82
2022/04/03 01:56:44;;;;;;;9.18;3.88;;;;;;;;;;5050930;28;20047;-82
2022/04/03 01:59:10;;;;;;;8.38;3.75;;;;;;;;;;5081862;28;20471;-82
2022/04/03 02:01:36;;;;;;;6.65;4.30;;;;;;;;;;5066708;28;20164;-82
2022/04/03 02:04:03;;;;;;;4.68;3.25;;;;;;;;;;5082133;28;20048;-82
2022/04/03 02:06:29;;;;;;;7.32;4.00;;;;;;;;;;5083327;28;20040;-82
2022/04/03 02:08:55;;;;;;;8.10;3.63;;;;;;;;;;5066566;28;20135;-81
2022/04/03 02:11:21;;;;;;;5.00;3.25;;;;;;;;;;5067523;28;20044;-81
2022/04/03 02:13:48;;;;;;;4.03;3.35;;;;;;;;;;5089066;28;20051;-81
2022/04/03 02:16:14;;;;;;;9.40;4.05;;;;;;;;;;5087368;28;20048;-82
2022/04/03 02:18:41;;;;;;;5.65;3.53;;;;;;;;;;5085456;28;20398;-81
2022/04/03 02:21:07;;;;;;;5.35;3.38;;;;;;;;;;5083417;28;21675;-81
2022/04/03 02:23:33;;;;;;;6.35;3.60;;;;;;;;;;5120551;27;20414;-81
2022/04/03 02:25:59;;;;;;;7.10;4.05;;;;;;;;;;5085089;28;20047;-81
2022/04/03 02:28:25;;;;;;;9.35;3.80;;;;;;;;;;5085804;28;20467;-81
2022/04/03 02:30:51;;;;;;;6.28;3.47;;;;;;;;;;5084335;28;20055;-81
2022/04/03 02:33:18;;;;;;;5.20;3.35;;;;;;;;;;5054273;28;20102;-82
2022/04/03 02:35:44;;;;;;;7.32;3.85;;;;;;;;;;5086956;28;20040;-82
2022/04/03 02:38:10;;;;;;;5.95;3.60;;;;;;;;;;5052945;28;20608;-82
2022/04/03 02:40:36;;;;;;;6.53;3.50;;;;;;;;;;5068434;28;20032;-82
2022/04/03 02:43:03;;;;;;;5.78;3.30;;;;;;;;;;5084480;28;20131;-82
2022/04/03 02:45:29;;;;;;;6.68;3.40;;;;;;;;;;5069231;28;20372;-82
2022/04/03 02:47:56;;;;;;;4.65;2.70;;;;;;;;;;5071580;28;20040;-82
2022/04/03 02:50:23;;;;;;;5.93;4.10;;;;;;;;;;5088791;28;20044;-82
2022/04/03 02:52:49;;;;;;;5.88;3.50;;;;;;;;;;5086411;28;20394;-81
2022/04/03 02:55:16;;;;;;;5.60;3.63;;;;;;;;;;5070150;28;20044;-82
2022/04/03 02:57:42;;;;;;;8.00;3.78;;;;;;;;;;5087025;28;20036;-82
2022/04/03 03:00:14;;;;;;;6.50;3.47;;;;;;;;;;5070464;28;20043;-82
2022/04/03 03:02:40;;;;;;;5.25;3.20;;;;;;;;;;5068782;28;20044;-82
2022/04/03 03:05:07;;;;;;;5.35;3.60;;;;;;;;;;5086958;28;20082;-82
2022/04/03 03:07:37;;;;;;;7.05;3.58;;;;;;;;;;5070192;28;20494;-81
2022/04/03 03:10:04;;;;;;;9.80;4.50;;;;;;;;;;5068509;28;20044;-82
2022/04/03 03:12:30;;;;;;;5.35;3.03;;;;;;;;;;5085360;28;20036;-82
2022/04/03 03:14:59;;;;;;;7.25;3.00;;;;;;;;;;5068819;28;20055;-82
2022/04/03 03:17:25;;;;;;;4.57;3.20;;;;;;;;;;5070475;28;20501;-82
2022/04/03 03:19:52;;;;;;;7.68;3.28;;;;;;;;;;5070571;28;20040;-81
2022/04/03 03:22:19;;;;;;;6.38;3.22;;;;;;;;;;5083734;28;20127;-82
2022/04/03 03:24:45;;;;;;;4.80;3.30;;;;;;;;;;5069051;28;20560;-82
2022/04/03 03:27:11;;;;;;;8.60;3.35;;;;;;;;;;5053295;28;20043;-81
2022/04/03 03:29:38;;;;;;;6.90;3.03;;;;;;;;;;5085996;28;20040;-81
2022/04/03 03:32:04;;;;;;;6.90;2.70;;;;;;;;;;5068308;28;20393;-81
2022/04/03 03:34:30;;;;;;;4.78;3.10;;;;;;;;;;5068818;28;20051;-81
2022/04/03 03:36:56;;;;;;;7.18;2.90;;;;;;;;;;5075838;28;20096;-81
2022/04/03 03:39:22;;;;;;;3.85;2.47;;;;;;;;;;5093477;28;20043;-82
2022/04/03 03:41:49;;;;;;;4.93;2.95;;;;;;;;;;5074388;28;20386;-81
2022/04/03 03:44:15;;;;;;;5.03;2.95;;;;;;;;;;5105937;28;20130;-81
2022/04/03 03:46:41;;;;;;;3.88;2.63;;;;;;;;;;5071110;28;20039;-81
2022/04/03 03:49:08;;;;;;;5.15;2.67;;;;;;;;;;5082764;28;20562;-82
2022/04/03 03:51:34;;;;;;;4.85;3.58;;;;;;;;;;5086992;28;20113;-82
2022/04/03 03:54:01;;;;;;;4.28;2.50;;;;;;;;;;5083401;28;20451;-83
2022/04/03 03:56:27;;;;;;;4.53;2.42;;;;;;;;;;5085930;28;20105;-82
2022/04/03 03:58:53;;;;;;;3.35;2.33;;;;;;;;;;5100758;28;20048;-81
2022/04/03 04:01:20;;;;;;;7.00;2.78;;;;;;;;;;5083547;28;20094;-82
2022/04/03 04:03:46;;;;;;;3.35;2.67;;;;;;;;;;5087706;28;20051;-81
2022/04/03 04:06:12;;;;;;;6.47;2.70;;;;;;;;;;5074685;28;20063;-82
2022/04/03 04:08:39;;;;;;;4.30;2.78;;;;;;;;;;5093021;28;20559;-81
2022/04/03 04:11:05;;;;;;;4.22;2.63;;;;;;;;;;5076636;28;20074;-82
2022/04/03 04:13:32;;;;;;;6.50;2.70;;;;;;;;;;5084734;28;20138;-81
2022/04/03 04:15:58;;;;;;;9.45;3.55;;;;;;;;;;5067770;28;20048;-81
2022/04/03 04:18:24;;;;;;;3.70;2.67;;;;;;;;;;5068371;28;20134;-81
2022/04/03 04:20:52;;;;;;;5.53;3.30;;;;;;;;;;5070435;28;20047;-80
2022/04/03 04:23:21;;;;;;;7.05;3.00;;;;;;;;;;5084236;28;20116;-82
2022/04/03 04:25:47;;;;;;;6.07;2.90;;;;;;;;;;5070882;28;20518;-81
2022/04/03 04:28:13;;;;;;;6.85;3.40;;;;;;;;;;5073669;28;20189;-82
2022/04/03 04:30:39;;;;;;;4.60;3.40;;;;;;;;;;5051801;28;20040;-82
2022/04/03 04:33:06;;;;;;;4.63;2.88;;;;;;;;;;5067112;28;20406;-82
2022/04/03 04:35:33;;;;;;;3.42;2.97;;;;;;;;;;5118587;27;20059;-82
2022/04/03 04:37:59;;;;;;;8.23;3.20;;;;;;;;;;5100295;28;20051;-81
2022/04/03 04:40:25;;;;;;;6.68;3.20;;;;;;;;;;5084200;28;20036;-82
2022/04/03 04:42:51;;;;;;;4.53;3.25;;;;;;;;;;5068650;28;20040;-81
2022/04/03 04:45:17;;;;;;;4.53;3.00;;;;;;;;;;5084295;28;20044;-82
2022/04/03 04:47:43;;;;;;;5.25;2.65;;;;;;;;;;5085722;28;20040;-81
2022/04/03 04:50:11;;;;;;;6.10;3.20;;;;;;;;;;5102285;28;20052;-82
2022/04/03 04:52:38;;;;;;;6.57;3.30;;;;;;;;;;5069785;28;20044;-82
2022/04/03 04:55:05;;;;;;;6.32;3.53;;;;;;;;;;5082753;28;20062;-83
2022/04/03 04:57:35;;;;;;;6.28;3.78;;;;;;;;;;5068131;28;20139;-83
2022/04/03 05:00:02;;;;;;;6.80;3.15;;;;;;;;;;5067558;28;20063;-82
2022/04/03 05:02:29;;;;;;;3.25;2.78;;;;;;;;;;5081535;28;20066;-82
2022/04/03 05:04:55;;;;;;;6.25;2.78;;;;;;;;;;5078869;28;20040;-82
2022/04/03 05:07:22;;;;;;;7.78;3.33;;;;;;;;;;5065844;28;20537;-83
2022/04/03 05:09:49;;;;;;;5.72;3.33;;;;;;;;;;5080572;28;21076;-81
2022/04/03 05:12:15;;;;;;;7.70;3.60;;;;;;;;;;5067745;28;20131;-82
2022/04/03 05:14:42;;;;;;;5.07;3.60;;;;;;;;;;5066440;28;20044;-81
2022/04/03 05:17:08;;;;;;;6.15;3.47;;;;;;;;;;5067120;28;20054;-82
2022/04/03 05:19:35;;;;;;;9.43;4.43;;;;;;;;;;5083360;28;20044;-82
2022/04/03 05:22:01;;;;;;;7.68;3.90;;;;;;;;;;5066699;28;20386;-82
2022/04/03 05:24:27;;;;;;;6.50;4.05;;;;;;;;;;5082138;28;20052;-82
2022/04/03 05:26:54;;;;;;;7.45;3.35;;;;;;;;;;5081661;28;20039;-81
2022/04/03 05:29:20;;;;;;;8.35;3.60;;;;;;;;;;5065975;28;20047;-81
2022/04/03 05:31:46;;;;;;;4.88;3.08;;;;;;;;;;5065742;28;20071;-82
2022/04/03 05:34:12;;;;;;;5.10;2.95;;;;;;;;;;5082832;28;20072;-83
2022/04/03 05:36:39;;;;;;;6.43;3.08;;;;;;;;;;5077900;28;20040;-81
2022/04/03 05:39:06;;;;;;;6.03;2.95;;;;;;;;;;5061880;28;20048;-82
2022/04/03 05:41:35;;;;;;;6.65;2.88;;;;;;;;;;5065815;28;20433;-82
2022/04/03 05:44:02;;;;;;;4.93;2.75;;;;;;;;;;5083465;28;20155;-84
2022/04/03 05:46:28;;;;;;;4.15;2.92;;;;;;;;;;5079984;28;20044;-81
2022/04/03 05:48:54;;;;;;;5.05;2.38;;;;;;;;;;5082929;28;20435;-83
2022/04/03 05:51:20;;;;;;;4.15;2.50;;;;;;;;;;5084590;28;20161;-83
2022/04/03 05:53:46;;;;;;;5.32;2.38;;;;;;;;;;5082608;28;20063;-82
2022/04/03 05:56:13;;;;;;;4.93;2.20;;;;;;;;;;5050356;28;20060;-83
2022/04/03 05:58:39;;;;;;;3.13;2.20;;;;;;;;;;5083193;28;20052;-85
2022/04/03 06:01:05;;;;;;;4.63;2.58;;;;;;;;;;5079720;28;20036;-81
2022/04/03 06:03:31;;;;;;;4.85;2.72;;;;;;;;;;5109620;28;20506;-86
2022/04/03 06:05:57;;;;;;;4.82;2.42;;;;;;;;;;5116890;28;20123;-87
2022/04/03 06:08:23;;;;;;;3.28;2.35;;;;;;;;;;5085236;28;20091;-85
2022/04/03 06:10:49;;;;;;;3.35;2.17;;;;;;;;;;5103870;28;20044;-92
2022/04/03 06:13:15;;;;;;;6.90;1.95;;;;;;;;;;5089380;28;20055;-85
2022/04/03 06:15:43;;;;;;;5.20;1.70;;;;;;;;;;5085161;28;20051;-82
2022/04/03 06:18:13;;;;;;;4.15;1.45;;;;;;;;;;5079712;28;20048;-81
2022/04/03 06:20:40;;;;;;;5.88;1.30;;;;;;;;;;5082590;28;20585;-82
2022/04/03 06:23:13;;;;;;;6.93;1.38;;;;;;;;;;5084273;28;20052;-82
2022/04/03 06:25:39;;;;;;;4.93;1.50;;;;;;;;;;5082238;28;20372;-81
2022/04/03 06:28:05;;;;;;;7.35;1.67;;;;;;;;;;5082457;28;20040;-83
2022/04/03 06:30:31;;;;;;;6.13;1.70;;;;;;;;;;5081197;28;20160;-84
2022/04/03 06:32:57;;;;;;;3.72;1.67;;;;;;;;;;5087036;28;20580;-82
2022/04/03 06:35:23;;;;;;;4.60;1.83;;;;;;;;;;5082997;28;20132;-83
2022/04/03 06:37:49;;;;;;;3.60;1.50;;;;;;;;;;5067189;28;20044;-82
2022/04/03 06:40:16;;;;;;;4.10;1.55;;;;;;;;;;5081879;28;20051;-81
2022/04/03 06:42:43;;;;;;;6.68;1.60;;;;;;;;;;5101023;28;20425;-88
2022/04/03 06:45:09;;;;;;;3.22;1.33;;;;;;;;;;5087310;28;20048;-89
2022/04/03 06:47:36;;;;;;;5.45;1.50;;;;;;;;;;5068543;28;20071;-91
2022/04/03 06:50:02;;;;;;;;;;;;;;;;;;5090166;28;20047;-87
2022/04/03 06:52:28;;;;;;;;;;;;;;;;;;5082653;28;19923;-89
2022/04/03 06:54:54;;;;;;;;;;;;;;;;;;5067435;28;20380;-84
2022/04/03 06:57:20;;;;;;;;;;;;;;;;;;5071827;28;19927;-88
2022/04/03 06:59:46;;;;;;;;;;;;;;;;;;5075955;28;20344;-86
2022/04/03 07:02:12;;;;;;;;;;;;;;;;;;5073928;28;19951;-86
2022/04/03 07:04:38;;;;;;;;;;;;;;;;;;5076457;28;20339;-84
2022/04/03 07:07:04;;;;;;;;;;;;;;;;;;5093012;28;19935;-87
2022/04/03 07:09:30;;;;;;;;;;;;;;;;;;5092199;28;19920;-85
2022/04/03 07:11:56;;;;;;;;;;;;;;;;;;5075444;28;20350;-84
2022/04/03 07:14:22;;;;;;;;;;;;;;;;;;5073432;28;20421;-86
2022/04/03 07:16:48;;;;;;;;;;;;;;;;;;5075086;28;19920;-85
2022/04/03 07:19:14;;;;;;;;;;;;;;;;;;5074599;28;20254;-85
2022/04/03 07:21:40;;;;;;;;;;;;;;;;;;5092307;28;19989;-84
2022/04/03 07:24:06;;;;;;;;;;;;;;;;;;5089908;28;19924;-85
2022/04/03 07:26:32;;;;;;;;;;;;;;;;;;5088356;28;19920;-85
2022/04/03 07:28:59;;;;;;;;;;;;;;;;;;5090197;28;20008;-85
2022/04/03 07:31:25;;;;;;;;;;;;;;;;;;5091565;28;20065;-83
2022/04/03 07:33:51;;;;;;;;;;;;;;;;;;5073572;28;20011;-81
2022/04/03 07:36:17;;;;;;;;;;;;;;;;;;5067927;28;19989;-87
2022/04/03 07:38:43;;;;;;;;;;;;;;;;;;5086803;28;19924;-83
2022/04/03 07:41:09;;;;;;;;;;;;;;;;;;5093113;28;20011;-86
2022/04/03 07:43:35;;;;;;;;;;;;;;;;;;5091043;28;19936;-84
2022/04/03 07:46:01;;;;;;;;;;;;;;;;;;5120812;27;20010;-89
2022/04/03 07:48:27;;;;;;;;;;;;;;;;;;5070692;28;20065;-87
2022/04/03 07:50:53;;;;;;;;;;;;;;;;;;5069871;28;19923;-87
2022/04/03 07:53:19;;;;;;;;;;;;;;;;;;5089692;28;19920;-86
2022/04/03 07:55:45;;;;;;;;;;;;;;;;;;5090893;28;19924;-83
2022/04/03 07:58:11;;;;;;;;;;;;;;;;;;5079505;28;19941;-95
2022/04/03 08:00:37;;;;;;;;;;;;;;;;;;5094565;28;20422;-88
2022/04/03 08:03:03;;;;;;;;;;;;;;;;;;5091915;28;20435;-89
2022/04/03 08:05:29;;;;;;;;;;;;;;;;;;5096043;28;19946;-92
2022/04/03 08:07:58;;;;;;;;;;;;;;;;;;5096300;28;19924;-92
2022/04/03 08:10:24;;;;;;;;;;;;;;;;;;5109640;22;19920;-88
2022/04/03 08:12:50;;;;;;;;;;;;;;;;;;5050904;28;19920;-83
2022/04/03 08:15:16;;;;;;;;;;;;;;;;;;5045063;28;20033;-80
2022/04/03 08:17:42;;;;;;;;;;;;;;;;;;5028067;28;20608;-76
2022/04/03 08:20:11;;;;;;;;;;;;;;;;;;5046161;28;19921;-83
2022/04/03 08:22:37;;;;;;;;;;;;;;;;;;5048076;28;20406;-80
2022/04/03 08:25:03;;;;;;;;;;;;;;;;;;5047946;28;20038;-80
2022/04/03 08:27:29;;;;;;;;;;;;;;;;;;5050408;28;19960;-80
2022/04/03 08:29:55;;;;;;;;;;;;;;;;;;5034940;28;19932;-80
2022/04/03 08:32:21;;;;;;;;;;;;;;;;;;5051466;28;20268;-81
2022/04/03 08:34:47;;;;;;;;;;;;;;;;;;5052937;28;19920;-80
2022/04/03 08:37:13;;;;;;;;;;;;;;;;;;5052512;28;19993;-79
2022/04/03 08:39:39;;;;;;;;;;;;;;;;;;5053318;28;20269;-79
2022/04/03 08:42:05;;;;;;;;;;;;;;;;;;5050432;28;19971;-81
2022/04/03 08:44:31;;;;;;;;;;;;;;;;;;5050392;28;19944;-80
2022/04/03 08:46:59;;;;;;;4.97;1.08;;;;;;;;;;5028471;28;19987;-80
2022/04/03 08:49:25;;;;;;;;;;;;;;;;;;5049808;28;20060;-81
2022/04/03 08:51:52;;;;;;;;;;;;;;;;;;5053863;28;19920;-81
2022/04/03 08:54:20;;;;;;;2.38;0.60;;;;;;;;;;5049869;28;19920;-79
2022/04/03 08:56:46;;;;;;;2.45;0.70;;;;;;;;;;5049369;28;20047;-78
2022/04/03 08:59:12;;;;;;;3.33;0.70;;;;;;;;;;5032229;28;20049;-80
2022/04/03 09:01:38;;;;;;;3.92;0.60;;;;;;;;;;5031010;28;20488;-78
2022/04/03 09:04:05;;;;;;;;;;;;;;;;;;5053139;28;20373;-82
2022/04/03 09:06:31;;;;;;;;;;;;;;;;;;5032598;28;19928;-81
2022/04/03 09:08:57;;;;;;;3.40;0.70;;;;;;;;;;5032967;28;19921;-80
2022/04/03 09:11:27;;;;;;;1.65;0.60;;;;;;;;;;5048770;28;20076;-80
2022/04/03 09:13:54;;;;;;;2.25;0.60;;;;;;;;;;5049463;28;20042;-80
2022/04/03 09:16:37;;;;;;;1.40;0.60;;;;;;;;;;5047473;28;20490;-80
2022/04/03 09:19:03;;;;;;;5.40;0.73;;;;;;;;;;5049288;28;20056;-80
2022/04/03 09:21:29;;;;;;;3.45;0.82;;;;;;;;;;5047285;28;20083;-80
2022/04/03 09:23:58;;;;;;;4.38;0.70;;;;;;;;;;5032399;28;20511;-80
2022/04/03 09:26:24;;;;;;;2.63;1.00;;;;;;;;;;5031693;28;20480;-80
2022/04/03 09:28:50;;;;;;;2.33;0.50;;;;;;;;;;5046731;28;20053;-79
2022/04/03 09:31:28;;;;;;;2.08;0.70;;;;;;;;;;5033332;28;20036;-80
2022/04/03 09:34:01;;;;;;;4.35;0.80;;;;;;;;;;5031467;28;20080;-80
2022/04/03 09:36:31;;;;;;;2.67;0.52;;;;;;;;;;5047889;28;20049;-80
2022/04/03 09:39:06;;;;;;;1.85;0.60;;;;;;;;;;5049309;28;20040;-80
2022/04/03 09:41:33;;;;;;;5.13;1.10;;;;;;;;;;5045834;28;20492;-80
2022/04/03 09:43:59;;;;;;;2.85;0.70;;;;;;;;;;5047196;28;20064;-81
2022/04/03 09:46:29;;;;;;;2.50;0.50;;;;;;;;;;5032240;28;20396;-81
2022/04/03 09:48:56;;;;;;;2.45;0.60;;;;;;;;;;5016512;28;20407;-80
2022/04/03 09:51:22;;;;;;;5.70;0.70;;;;;;;;;;5046819;28;20468;-81
2022/04/03 09:53:50;;;;;;;2.17;0.60;;;;;;;;;;5049246;28;20053;-80
2022/04/03 09:56:25;;;;;;;5.32;0.80;;;;;;;;;;5047085;28;20056;-81
2022/04/03 09:58:51;;;;;;;2.90;0.63;;;;;;;;;;5032674;28;20113;-80
2022/04/03 10:01:26;;;;;;;2.58;0.60;;;;;;;;;;5031820;28;20040;-80
2022/04/03 10:03:53;;;;;;;3.40;0.50;;;;;;;;;;5031948;28;20102;-79
2022/04/03 10:06:19;;;;;;;3.40;1.20;;;;;;;;;;5047157;28;20041;-80
2022/04/03 10:08:48;;;;;;;2.80;0.50;;;;;;;;;;5034146;28;20080;-79
2022/04/03 10:11:15;;;;;;;2.00;0.40;;;;;;;;;;5048933;28;20179;-79
2022/04/03 10:13:43;;;;;;;2.53;0.73;;;;;;;;;;5031936;28;20124;-79
2022/04/03 10:16:10;;;;;;;5.55;0.50;;;;;;;;;;5048380;28;20084;-80
2022/04/03 10:18:36;;;;;;;3.97;0.75;;;;;;;;;;5031971;28;20128;-79
2022/04/03 10:21:03;;;;;;;4.70;1.00;;;;;;;;;;5031173;28;20033;-79
2022/04/03 10:23:31;;;;;;;5.85;0.95;;;;;;;;;;5047718;28;20048;-79
2022/04/03 10:25:58;;;;;;;1.27;0.55;;;;;;;;;;5046648;28;20103;-80
2022/04/03 10:28:25;;;;;;;6.85;0.85;;;;;;;;;;5028531;28;20052;-78
2022/04/03 10:30:58;;;;;;;3.40;0.80;;;;;;;;;;5032415;28;20040;-79
2022/04/03 10:33:24;;;;;;;5.32;1.00;;;;;;;;;;5032836;28;20048;-79
2022/04/03 10:36:07;;;;;;;6.63;1.00;;;;;;;;;;5036340;28;20044;-79
2022/04/03 10:38:37;;;;;;;2.80;0.80;;;;;;;;;;5051266;28;20046;-79
2022/04/03 10:41:05;;;;;;;4.43;0.55;;;;;;;;;;5034544;28;20043;-80
2022/04/03 10:43:32;;;;;;;0.85;0.50;;;;;;;;;;5051675;28;20072;-80
2022/04/03 10:45:58;;;;;;;0.80;0.30;;;;;;;;;;5051749;28;20040;-80
2022/04/03 10:48:26;;;;;;;2.13;0.40;;;;;;;;;;5052031;28;20079;-80
2022/04/03 10:51:26;;;;;;;0.90;0.40;;;;;;;;;;5035791;28;20076;-80
2022/04/03 10:53:55;;;;;;;1.25;0.30;;;;;;;;;;5010515;28;20053;-79
2022/04/03 10:56:25;;;;;;;1.73;0.28;;;;;;;;;;5062866;28;20037;-81
2022/04/03 10:58:53;;;;;;;1.65;0.30;;;;;;;;;;5066296;28;20084;-81
2022/04/03 11:01:32;;;;;;;1.17;0.40;;;;;;;;;;5039333;28;20041;-82
2022/04/03 11:04:03;;;;;;;2.15;0.30;;;;;;;;;;5034574;28;20053;-81
2022/04/03 11:06:34;;;;;;;2.08;0.50;;;;;;;;;;5051166;28;20488;-79
2022/04/03 11:09:01;;;;;;;3.92;0.52;;;;;;;;;;5046468;28;20542;-80
2022/04/03 11:11:54;;;;;;;3.05;0.60;;;;;;;;;;5048431;28;20060;-77
2022/04/03 11:14:38;;;;;;;3.47;1.02;;;;;;;;;;5044988;28;20067;-79
2022/04/03 11:17:04;;;;;;;4.00;0.70;;;;;;;;;;5051510;28;20037;-79
2022/04/03 11:19:30;;;;;;;;;;;;;;;;;;5047655;28;20072;-79
2022/04/03 11:21:57;;;;;;;2.75;0.50;;;;;;;;;;5034072;28;20376;-79
2022/04/03 11:24:25;;;;;;;2.45;0.40;;;;;;;;;;5017133;28;20048;-80
2022/04/03 11:26:51;;;;;;;5.13;0.40;;;;;;;;;;5049132;28;20124;-79
2022/04/03 11:29:18;;;;;;;1.55;0.60;;;;;;;;;;5040420;28;20124;-80
2022/04/03 11:31:46;;;;;;;1.85;0.68;;;;;;;;;;5025285;28;20115;-81
2022/04/03 11:34:12;;;;;;;2.20;0.38;;;;;;;;;;5041787;28;20053;-81
2022/04/03 11:36:38;;;;;;;1.73;0.50;;;;;;;;;;5016714;28;20049;-79
2022/04/03 11:39:09;;;;;;;2.03;0.57;;;;;;;;;;5046555;28;20379;-80
2022/04/03 11:41:38;;;;;;;1.75;0.60;;;;;;;;;;5031905;28;20049;-80
2022/04/03 11:44:04;;;;;;;3.60;1.15;;;;;;;;;;5047762;28;20053;-80
2022/04/03 11:46:32;;;;;;;3.85;0.85;;;;;;;;;;5048084;28;20056;-80
2022/04/03 11:48:58;;;;;;;3.05;0.90;;;;;;;;;;5047606;28;20048;-79
2022/04/03 11:51:24;;;;;;;2.35;1.10;;;;;;;;;;5043892;28;20114;-83
2022/04/03 11:54:00;;;;;;;1.00;0.40;;;;;;;;;;5046234;28;20103;-82
2022/04/03 11:56:29;;;;;;;2.90;0.70;;;;;;;;;;5046558;28;20045;-82
2022/04/03 11:58:57;;;;;;;3.13;0.75;;;;;;;;;;5049416;28;20044;-84
2022/04/03 12:01:30;;;;;;;1.85;0.77;;;;;;;;;;5049710;28;20055;-81
2022/04/03 12:04:08;;;;;;;2.95;0.50;;;;;;;;;;5032247;28;20055;-81
2022/04/03 12:06:34;;;;;;;0.52;0.28;;;;;;;;;;5046953;28;20392;-82
2022/04/03 12:09:00;;;;;;;3.85;0.73;;;;;;;;;;5028791;28;21479;-81
2022/04/03 12:11:28;;;;;;;0.90;0.70;;;;;;;;;;5048404;28;20053;-79
2022/04/03 12:13:55;;;;;;;2.67;1.00;;;;;;;;;;5049085;28;20072;-78
2022/04/03 12:16:26;;;;;;;2.90;0.50;;;;;;;;;;5047286;28;20476;-79
2022/04/03 12:18:55;;;;;;;4.13;0.88;;;;;;;;;;5048133;28;20072;-81
2022/04/03 12:21:41;;;;;;;3.42;0.70;;;;;;;;;;5046392;28;20115;-81
2022/04/03 12:24:09;;;;;;;1.98;0.77;;;;;;;;;;5032282;28;20051;-81
2022/04/03 12:26:35;;;;;;;2.30;0.65;;;;;;;;;;5049222;28;20040;-80
2022/04/03 12:29:01;;;;;;;4.15;0.98;;;;;;;;;;5046387;28;20045;-79
2022/04/03 12:31:31;;;;;;;3.92;0.70;;;;;;;;;;5034281;28;20391;-80
2022/04/03 12:34:05;;;;;;;2.25;0.60;;;;;;;;;;5031614;28;20131;-79
2022/04/03 12:36:57;;;;;;;2.10;0.75;;;;;;;;;;5044855;28;20033;-80
2022/04/03 12:39:27;;;;;;;3.25;0.85;;;;;;;;;;5027409;28;20060;-82
2022/04/03 12:41:53;;;;;;;2.63;0.93;;;;;;;;;;5048457;28;20084;-82
2022/04/03 12:44:19;;;;;;;2.95;1.13;;;;;;;;;;5047029;28;20116;-81
2022/04/03 12:46:46;;;;;;;2.78;1.05;;;;;;;;;;5035406;28;20148;-79
2022/04/03 12:49:19;;;;;;;4.45;0.98;;;;;;;;;;5047045;28;20106;-79
2022/04/03 12:51:46;;;;;;;4.13;1.07;;;;;;;;;;5026723;28;20045;-78
2022/04/03 12:54:12;;;;;;;1.95;0.98;;;;;;;;;;5044948;28;20118;-79
2022/04/03 12:59:24;;;;;;;4.47;1.00;;;;;;;;;;5049482;28;20072;-81
2022/04/03 13:01:53;;;;;;;2.33;0.68;;;;;;;;;;5048323;28;20502;-80
2022/04/03 13:04:32;;;;;;;4.90;0.80;;;;;;;;;;5048945;28;20091;-80
2022/04/03 13:06:58;;;;;;;2.72;0.60;;;;;;;;;;5014722;28;20162;-78
2022/04/03 13:09:25;;;;;;;5.60;1.45;;;;;;;;;;5042746;28;20050;-76
2022/04/03 13:11:52;;;;;;;1.63;0.75;;;;;;;;;;5027656;28;20056;-77
2022/04/03 13:14:24;;;;;;;1.40;0.82;;;;;;;;;;5028029;28;20041;-77
2022/04/03 13:16:52;;;;;;;2.30;0.70;;;;;;;;;;5040941;28;20493;-77
2022/04/03 13:19:18;;;;;;;3.47;1.30;;;;;;;;;;5048630;28;20373;-78
2022/04/03 13:21:45;;;;;;;5.25;1.23;;;;;;;;;;5013422;28;20049;-78
2022/04/03 13:24:11;;;;;;;1.58;0.75;;;;;;;;;;5043322;28;20086;-79
2022/04/03 13:26:38;;;;;;;3.92;0.90;;;;;;;;;;5044441;28;20444;-77
2022/04/03 13:29:06;;;;;;;3.95;1.08;;;;;;;;;;5047793;28;20396;-78
2022/04/03 13:31:33;;;;;;;4.03;1.05;;;;;;;;;;5030816;28;20048;-79
2022/04/03 13:33:59;;;;;;;3.92;1.00;;;;;;;;;;5030603;28;20049;-77
2022/04/03 13:36:25;;;;;;;2.75;0.70;;;;;;;;;;5031170;28;20037;-77
2022/04/03 13:38:51;;;;;;;1.42;0.40;;;;;;;;;;5013496;28;20049;-78
2022/04/03 13:41:19;;;;;;;2.80;0.70;;;;;;;;;;5030327;28;20041;-81
2022/04/03 13:43:45;;;;;;;1.88;0.60;;;;;;;;;;5044076;28;20458;-81
2022/04/03 13:46:11;;;;;;;3.50;0.82;;;;;;;;;;5046197;28;20091;-82
2022/04/03 13:48:37;;;;;;;2.20;0.70;;;;;;;;;;5037627;28;20066;-80
2022/04/03 13:51:04;;;;;;;5.07;0.90;;;;;;;;;;5047725;28;20052;-80
2022/04/03 13:53:31;;;;;;;2.38;0.60;;;;;;;;;;5045298;28;20061;-79
2022/04/03 13:55:57;;;;;;;1.23;0.57;;;;;;;;;;5046379;28;20126;-81
2022/04/03 13:58:26;;;;;;;6.10;1.30;;;;;;;;;;5045960;28;20037;-81
2022/04/03 14:00:59;;;;;;;3.45;0.88;;;;;;;;;;5043318;28;20530;-79
2022/04/03 14:03:29;;;;;;;2.40;0.88;;;;;;;;;;5029540;28;20052;-79
2022/04/03 14:05:55;;;;;;;1.17;0.60;;;;;;;;;;5030730;28;20404;-78
2022/04/03 14:08:21;;;;;;;1.88;0.85;;;;;;;;;;5032552;28;20045;-79
2022/04/03 14:10:48;;;;;;;3.00;0.90;;;;;;;;;;5034876;28;20409;-78
2022/04/03 14:13:22;;;;;;;3.17;0.70;;;;;;;;;;5034099;28;20059;-79
2022/04/03 14:15:48;;;;;;;4.00;0.90;;;;;;;;;;5051854;28;20495;-78
2022/04/03 14:18:20;;;;;;;2.83;0.70;;;;;;;;;;5036083;28;20439;-79
2022/04/03 14:20:46;;;;;;;5.07;1.13;;;;;;;;;;5050232;28;20407;-78
2022/04/03 14:23:14;;;;;;;3.53;1.10;;;;;;;;;;5052802;28;20057;-79
2022/04/03 14:25:40;;;;;;;3.45;1.05;;;;;;;;;;5051531;28;20511;-77
2022/04/03 14:28:06;;;;;;;2.28;0.77;;;;;;;;;;5035215;28;20049;-78
2022/04/03 14:30:32;;;;;;;3.88;0.93;;;;;;;;;;5049395;28;20052;-78
2022/04/03 14:32:58;;;;;;;3.38;0.80;;;;;;;;;;5052429;28;20400;-78
2022/04/03 14:35:25;;;;;;;4.00;1.52;;;;;;;;;;5050259;28;20095;-79
2022/04/03 14:37:51;;;;;;;2.60;0.80;;;;;;;;;;5049734;28;20447;-78
2022/04/03 14:40:17;;;;;;;2.97;0.90;;;;;;;;;;5035334;28;20045;-78
2022/04/03 14:42:44;;;;;;;3.83;0.80;;;;;;;;;;5034418;28;20045;-78
2022/04/03 14:45:10;;;;;;;1.67;0.70;;;;;;;;;;5051110;28;20051;-79
2022/04/03 14:47:37;;;;;;;1.75;0.60;;;;;;;;;;5017627;28;20037;-79
2022/04/03 14:50:05;;;;;;;1.10;0.50;;;;;;;;;;5050574;28;20056;-78
2022/04/03 14:52:31;;;;;;;4.28;0.82;;;;;;;;;;5052171;28;20507;-79
2022/04/03 14:55:01;;;;;;;2.97;0.93;;;;;;;;;;5034638;28;20094;-79
2022/04/03 14:57:27;;;;;;;1.80;0.57;;;;;;;;;;5035443;28;20388;-79
2022/04/03 14:59:53;;;;;;;1.15;0.50;;;;;;;;;;5049927;28;20037;-79
2022/04/03 15:02:20;;;;;;;2.97;0.70;;;;;;;;;;5044731;28;20071;-79